Shokyu Maru — JG5288 — position and weather

sailwx.info

Track history (hours):
 
Tides and Currents Weather Stations Pressure Air Temp Water Temp Dewpoint Dewpoint Depression Visibility Wind Speed Wind Dir Waves Ship Positions

Shokyu Maru

Last reported at 2018-Jun-25 16:34 UTC. Time now 2018-Jun-25 17:36 UTC.
Position N 35°36' E 139°55'.

Length 91 m; draft 4.7 m.

Type: Tanker. MMSI: 431000253.

Date/timePositionNaut miles runAvg speedWind from/ knotsBaromVisibWave heightAir tempDewpointWater temp
2018-Jun-25 16:34N 35°36' E 139°55'0 0.0
2018-Jun-25 14:58N 35°36' E 139°55'4 6.7
2018-Jun-25 14:27N 35°33' E 139°58'410.1
2018-Jun-25 14:00N 35°31' E 140°02'0 0.3
2018-Jun-25 13:26N 35°31' E 140°03'0 0.0
2018-Jun-25 12:59N 35°31' E 140°03'0 0.0
2018-Jun-25 12:23N 35°31' E 140°03'0 0.0
2018-Jun-25 11:56N 35°31' E 140°03'0 0.0
2018-Jun-25 11:20N 35°31' E 140°03'0 0.0
2018-Jun-25 10:59N 35°31' E 140°03'0 0.0
2018-Jun-25 10:29N 35°31' E 140°03'0 0.0
2018-Jun-25 09:59N 35°31' E 140°03'0 0.0
2018-Jun-25 09:29N 35°31' E 140°03'0 0.0
2018-Jun-25 08:56N 35°31' E 140°03'0 0.0
2018-Jun-25 08:26N 35°31' E 140°03'0 0.0
2018-Jun-25 07:56N 35°31' E 140°03'1 1.7
2018-Jun-25 07:29N 35°31' E 140°02'3 5.9
2018-Jun-25 07:00N 35°33' E 139°59'4 8.9
2018-Jun-25 06:30N 35°36' E 139°55'0 0.1
2018-Jun-25 05:53N 35°36' E 139°55'0 0.0
2018-Jun-25 05:29N 35°36' E 139°55'0 0.0
2018-Jun-25 04:53N 35°36' E 139°55'0 0.0
2018-Jun-25 04:29N 35°36' E 139°55'0 0.0
2018-Jun-25 03:59N 35°36' E 139°55'0 0.0
2018-Jun-25 03:29N 35°36' E 139°55'0 0.0
2018-Jun-25 02:50N 35°36' E 139°55'0 0.0
2018-Jun-25 02:29N 35°36' E 139°55'3 7.1
2018-Jun-25 02:00N 35°38' E 139°58'0 0.1
2018-Jun-24 22:22N 35°38' E 139°59'3 9.5
2018-Jun-24 22:00N 35°36' E 139°55'0 0.2
2018-Jun-24 21:25N 35°36' E 139°55'0 0.0
2018-Jun-24 20:58N 35°36' E 139°55'0 0.0
2018-Jun-24 20:19N 35°36' E 139°55'0 0.0
2018-Jun-24 19:58N 35°36' E 139°55'0 0.0
2018-Jun-24 19:28N 35°36' E 139°55'0 0.0
2018-Jun-24 18:58N 35°36' E 139°55'0 0.0
2018-Jun-24 18:28N 35°36' E 139°55'0 0.0
2018-Jun-24 17:58N 35°36' E 139°55'0 0.0
2018-Jun-24 17:13N 35°36' E 139°55'0 0.0
2018-Jun-24 16:52N 35°36' E 139°55'0 0.0
2018-Jun-24 16:25N 35°36' E 139°55'0 0.0
2018-Jun-24 15:55N 35°36' E 139°55'0 0.0
2018-Jun-24 15:25N 35°36' E 139°55'0 0.0
2018-Jun-24 14:52N 35°36' E 139°55'0 0.0
2018-Jun-24 14:16N 35°36' E 139°55'0 0.0
2018-Jun-24 13:58N 35°36' E 139°55'0 0.0
2018-Jun-24 13:22N 35°36' E 139°55'0 0.0
2018-Jun-24 10:58N 35°36' E 139°55'0 0.0
2018-Jun-24 10:28N 35°36' E 139°55'0 0.0
2018-Jun-24 09:58N 35°36' E 139°55'0 0.0
2018-Jun-24 09:25N 35°36' E 139°55'0 0.0
2018-Jun-24 08:55N 35°36' E 139°55'1 2.9
2018-Jun-24 08:28N 35°35' E 139°56'510.7
2018-Jun-24 08:00N 35°32' E 140°01'2 2.9
2018-Jun-24 07:20N 35°31' E 140°03'0 0.0
2018-Jun-24 06:56N 35°31' E 140°03'0 0.0
2018-Jun-24 06:26N 35°31' E 140°03'0 0.0
2018-Jun-24 05:56N 35°31' E 140°03'0 0.0
2018-Jun-24 05:20N 35°31' E 140°03'0 0.0
2018-Jun-24 04:56N 35°31' E 140°03'0 0.0
2018-Jun-24 03:44N 35°31' E 140°03'0 0.0
2018-Jun-24 03:20N 35°31' E 140°03'0 0.0
2018-Jun-24 02:56N 35°31' E 140°03'0 0.0
2018-Jun-24 02:26N 35°31' E 140°03'0 0.0
2018-Jun-24 01:56N 35°31' E 140°03'1 1.0
2018-Jun-24 01:26N 35°31' E 140°02'811.6
2018-Jun-24 00:44N 35°38' E 139°58'1 0.4
2018-Jun-23 21:12N 35°37' E 139°58'210.5
2018-Jun-23 21:01N 35°36' E 139°55'0 0.6
2018-Jun-23 20:28N 35°36' E 139°55'0 0.0
2018-Jun-23 19:22N 35°36' E 139°55'0 0.0
2018-Jun-23 18:58N 35°36' E 139°55'0 0.0
2018-Jun-23 18:28N 35°36' E 139°55'0 0.0
2018-Jun-23 17:58N 35°36' E 139°55'0 0.1
2018-Jun-23 17:13N 35°36' E 139°55'0 0.0
2018-Jun-23 16:58N 35°36' E 139°55'0 0.0
2018-Jun-23 16:25N 35°36' E 139°55'0 0.0
2018-Jun-23 15:58N 35°36' E 139°55'0 0.0
2018-Jun-23 15:28N 35°36' E 139°55'0 0.0
2018-Jun-23 12:46N 35°36' E 139°55'0 0.0
2018-Jun-23 12:22N 35°36' E 139°55'0 0.1
2018-Jun-23 11:41N 35°36' E 139°55'1 4.5
2018-Jun-23 11:23N 35°35' E 139°56'510.5
2018-Jun-23 10:57N 35°32' E 140°00'2 3.1
2018-Jun-23 10:13N 35°31' E 140°03'0 0.0
2018-Jun-23 07:55N 35°31' E 140°03'0 0.0
2018-Jun-23 07:19N 35°31' E 140°03'0 0.0
2018-Jun-23 06:49N 35°31' E 140°03'0 0.0
2018-Jun-23 06:13N 35°31' E 140°03'0 0.0
2018-Jun-23 05:58N 35°31' E 140°03'0 0.0
2018-Jun-23 05:28N 35°31' E 140°03'0 0.0
2018-Jun-23 04:55N 35°31' E 140°03'0 0.5
2018-Jun-23 04:30N 35°31' E 140°02'510.2
2018-Jun-23 03:59N 35°35' E 139°60'2 0.2
2018-Jun-22 18:48N 35°37' E 139°59'0 0.0
2018-Jun-22 17:15N 35°37' E 139°59'0 0.0
2018-Jun-22 17:00N 35°37' E 139°59'0 0.0
2018-Jun-22 16:27N 35°37' E 139°59'0 0.0
2018-Jun-22 12:18N 35°37' E 139°59'0 0.0
2018-Jun-22 12:00N 35°37' E 139°59'0 0.0
2018-Jun-22 09:29N 35°37' E 139°59'9 1.4
2018-Jun-22 03:20N 35°29' E 140°01'310.1
2018-Jun-22 03:00N 35°32' E 139°59'610.8
2018-Jun-22 02:28N 35°37' E 139°59'0 0.0
2018-Jun-21 12:44N 35°37' E 139°59'4 7.5
2018-Jun-21 12:14N 35°34' E 139°60'210.4
2018-Jun-21 12:00N 35°32' E 140°01'1 0.2
2018-Jun-21 06:50N 35°31' E 140°02'1 1.8
2018-Jun-21 06:24N 35°31' E 140°02'0 0.4
2018-Jun-21 05:58N 35°31' E 140°01'4 7.4
2018-Jun-21 05:28N 35°34' E 139°58'3 6.7
2018-Jun-21 04:59N 35°36' E 139°55'0 0.0
2018-Jun-21 04:20N 35°36' E 139°55'0 0.0
2018-Jun-21 03:59N 35°36' E 139°55'2 3.9
2018-Jun-21 03:30N 35°37' E 139°57'0 0.0
2018-Jun-20 23:08N 35°37' E 139°57'1 9.5
2018-Jun-20 23:00N 35°36' E 139°56'1 1.0
2018-Jun-20 22:27N 35°36' E 139°55'0 0.0
2018-Jun-20 22:00N 35°36' E 139°55'0 0.0
2018-Jun-20 21:24N 35°36' E 139°55'0 0.0
2018-Jun-20 21:00N 35°36' E 139°55'0 0.0
2018-Jun-20 19:03N 35°36' E 139°55'0 0.0
2018-Jun-20 18:48N 35°36' E 139°55'0 0.0
2018-Jun-20 18:27N 35°36' E 139°55'0 0.0
2018-Jun-20 18:00N 35°36' E 139°55'0 0.0
2018-Jun-20 17:27N 35°36' E 139°55'0 0.0
2018-Jun-20 16:57N 35°36' E 139°55'0 0.0
2018-Jun-20 14:57N 35°36' E 139°55'0 0.0
2018-Jun-20 14:27N 35°36' E 139°55'0 0.0
2018-Jun-20 13:21N 35°36' E 139°55'0 0.1
2018-Jun-20 12:57N 35°36' E 139°55'0 0.0
2018-Jun-20 12:30N 35°36' E 139°55'3 6.7
2018-Jun-20 12:00N 35°34' E 139°58'5 8.2
2018-Jun-20 11:25N 35°31' E 140°03'0 0.0
2018-Jun-20 10:49N 35°31' E 140°03'0 0.0
2018-Jun-20 10:19N 35°31' E 140°03'0 0.0
2018-Jun-20 09:49N 35°31' E 140°03'0 0.0
2018-Jun-20 09:25N 35°31' E 140°03'0 0.0
2018-Jun-20 08:55N 35°31' E 140°03'0 0.0
2018-Jun-20 08:25N 35°31' E 140°03'0 0.0
2018-Jun-20 07:55N 35°31' E 140°03'0 0.0
2018-Jun-20 07:10N 35°31' E 140°03'0 0.0
2018-Jun-20 06:58N 35°31' E 140°03'0 0.0
2018-Jun-20 06:28N 35°31' E 140°03'0 0.0
2018-Jun-20 05:55N 35°31' E 140°03'0 0.0
2018-Jun-20 05:28N 35°31' E 140°03'1 2.7
2018-Jun-20 04:58N 35°32' E 140°01'1 1.3
2018-Jun-20 04:29N 35°32' E 140°01'1 1.1
2018-Jun-20 03:44N 35°33' E 140°01'0 0.5
2018-Jun-20 03:26N 35°33' E 140°01'0 0.7
2018-Jun-20 02:58N 35°33' E 140°01'5 9.0
2018-Jun-20 02:22N 35°38' E 139°58'1 0.4
2018-Jun-19 22:20N 35°37' E 139°58'3 7.6
2018-Jun-19 22:00N 35°36' E 139°55'0 0.0
2018-Jun-19 19:37N 35°36' E 139°55'0 0.0
2018-Jun-19 19:28N 35°36' E 139°55'0 0.0
2018-Jun-19 15:55N 35°36' E 139°55'0 0.0
2018-Jun-19 15:28N 35°36' E 139°55'0 0.0
2018-Jun-19 14:55N 35°36' E 139°55'0 0.0
2018-Jun-19 13:08N 35°36' E 139°55'1 5.6
2018-Jun-19 12:55N 35°35' E 139°56'410.6
2018-Jun-19 12:30N 35°32' E 140°00'2 3.2
2018-Jun-19 11:50N 35°31' E 140°03'0 0.0
2018-Jun-19 11:14N 35°31' E 140°03'0 0.0
2018-Jun-19 10:56N 35°31' E 140°03'0 0.0
2018-Jun-19 10:26N 35°31' E 140°03'0 0.0
2018-Jun-19 09:44N 35°31' E 140°03'0 0.0
2018-Jun-19 09:02N 35°31' E 140°03'0 0.0
2018-Jun-19 08:50N 35°31' E 140°03'0 0.0
2018-Jun-19 08:26N 35°31' E 140°03'0 0.0
2018-Jun-19 07:53N 35°31' E 140°03'0 0.0
2018-Jun-19 07:23N 35°31' E 140°03'0 0.0
2018-Jun-19 06:59N 35°31' E 140°03'0 0.0
2018-Jun-19 06:30N 35°31' E 140°03'1 1.2
2018-Jun-19 05:51N 35°31' E 140°02'1 0.4
2018-Jun-19 04:13N 35°32' E 140°02'2 9.7
2018-Jun-19 03:59N 35°34' E 140°00'611.1
2018-Jun-19 03:29N 35°39' E 139°58'2 0.3
2018-Jun-18 22:10N 35°37' E 139°58'1 0.1
2018-Jun-18 10:39N 35°37' E 139°58'3 7.1
2018-Jun-18 10:14N 35°34' E 139°59'210.6
2018-Jun-18 10:00N 35°32' E 140°01'2 0.3
2018-Jun-18 04:51N 35°31' E 140°02'1 3.2
2018-Jun-18 04:29N 35°32' E 140°01'1 1.5
2018-Jun-18 04:00N 35°32' E 140°01'4 8.9
2018-Jun-18 03:30N 35°35' E 139°57'1 2.8
2018-Jun-18 03:00N 35°36' E 139°55'0 0.9
2018-Jun-18 02:30N 35°36' E 139°56'4 1.1
2018-Jun-17 22:42N 35°40' E 139°57'3 7.8
2018-Jun-17 22:18N 35°38' E 139°59'310.1
2018-Jun-17 21:59N 35°36' E 139°55'0 0.3
2018-Jun-17 21:27N 35°36' E 139°55'0 0.0
2018-Jun-17 20:54N 35°36' E 139°55'0 0.0
2018-Jun-17 20:27N 35°36' E 139°55'0 0.0
2018-Jun-17 19:54N 35°36' E 139°55'0 0.0
2018-Jun-17 19:30N 35°36' E 139°55'0 0.0
2018-Jun-17 19:00N 35°36' E 139°55'0 0.0
2018-Jun-17 18:30N 35°36' E 139°55'0 0.0
2018-Jun-17 18:00N 35°36' E 139°55'0 0.0
2018-Jun-17 17:27N 35°36' E 139°55'0 0.0
2018-Jun-17 17:00N 35°36' E 139°55'0 0.0
2018-Jun-17 16:30N 35°36' E 139°55'0 0.0
2018-Jun-17 16:00N 35°36' E 139°55'0 0.0
2018-Jun-17 15:27N 35°36' E 139°55'0 0.0
2018-Jun-17 15:00N 35°36' E 139°55'0 0.0
2018-Jun-17 14:30N 35°36' E 139°55'0 0.0
2018-Jun-17 14:00N 35°36' E 139°55'0 0.0
2018-Jun-17 13:30N 35°36' E 139°55'0 0.0
2018-Jun-17 13:00N 35°36' E 139°55'0 0.0
2018-Jun-17 12:30N 35°36' E 139°55'0 0.0
2018-Jun-17 11:45N 35°36' E 139°55'0 0.0
2018-Jun-17 11:30N 35°36' E 139°55'0 0.0
2018-Jun-17 10:54N 35°36' E 139°55'0 0.0
2018-Jun-17 10:24N 35°36' E 139°55'2 4.9
2018-Jun-17 10:01N 35°35' E 139°57'510.6
2018-Jun-17 09:30N 35°31' E 140°02'1 0.5
2018-Jun-17 08:04N 35°31' E 140°03'0 0.0
2018-Jun-17 05:52N 35°31' E 140°03'0 0.0
2018-Jun-17 03:58N 35°31' E 140°03'0 0.3
2018-Jun-17 03:14N 35°31' E 140°02'1 0.8
2018-Jun-17 01:45N 35°32' E 140°01'411.4
2018-Jun-17 01:26N 35°35' E 139°60'3 0.1
2018-Jun-16 02:26N 35°38' E 139°59'0 0.0
2018-Jun-15 21:16N 35°38' E 139°59'310.1
2018-Jun-15 21:00N 35°36' E 139°56'  
Track history (hours):
 
Tides and Currents Weather Stations Pressure Air Temp Water Temp Dewpoint Dewpoint Depression Visibility Wind Speed Wind Dir Waves Ship Positions

Shokyu Maru

Last reported at 2018-Jun-25 16:34 UTC. Time now 2018-Jun-25 17:36 UTC.
Position N 35°36' E 139°55'.

Length 91 m; draft 4.7 m.

Type: Tanker. MMSI: 431000253.

Date/timePositionNaut miles runAvg speedWind from/ knotsBaromVisibWave heightAir tempDewpointWater temp
2018-Jun-25 16:34N 35°36' E 139°55'0 0.0
2018-Jun-25 14:58N 35°36' E 139°55'4 6.7
2018-Jun-25 14:27N 35°33' E 139°58'410.1
2018-Jun-25 14:00N 35°31' E 140°02'0 0.3
2018-Jun-25 13:26N 35°31' E 140°03'0 0.0
2018-Jun-25 12:59N 35°31' E 140°03'0 0.0
2018-Jun-25 12:23N 35°31' E 140°03'0 0.0
2018-Jun-25 11:56N 35°31' E 140°03'0 0.0
2018-Jun-25 11:20N 35°31' E 140°03'0 0.0
2018-Jun-25 10:59N 35°31' E 140°03'0 0.0
2018-Jun-25 10:29N 35°31' E 140°03'0 0.0
2018-Jun-25 09:59N 35°31' E 140°03'0 0.0
2018-Jun-25 09:29N 35°31' E 140°03'0 0.0
2018-Jun-25 08:56N 35°31' E 140°03'0 0.0
2018-Jun-25 08:26N 35°31' E 140°03'0 0.0
2018-Jun-25 07:56N 35°31' E 140°03'1 1.7
2018-Jun-25 07:29N 35°31' E 140°02'3 5.9
2018-Jun-25 07:00N 35°33' E 139°59'4 8.9
2018-Jun-25 06:30N 35°36' E 139°55'0 0.1
2018-Jun-25 05:53N 35°36' E 139°55'0 0.0
2018-Jun-25 05:29N 35°36' E 139°55'0 0.0
2018-Jun-25 04:53N 35°36' E 139°55'0 0.0
2018-Jun-25 04:29N 35°36' E 139°55'0 0.0
2018-Jun-25 03:59N 35°36' E 139°55'0 0.0
2018-Jun-25 03:29N 35°36' E 139°55'0 0.0
2018-Jun-25 02:50N 35°36' E 139°55'0 0.0
2018-Jun-25 02:29N 35°36' E 139°55'3 7.1
2018-Jun-25 02:00N 35°38' E 139°58'0 0.1
2018-Jun-24 22:22N 35°38' E 139°59'3 9.5
2018-Jun-24 22:00N 35°36' E 139°55'0 0.2
2018-Jun-24 21:25N 35°36' E 139°55'0 0.0
2018-Jun-24 20:58N 35°36' E 139°55'0 0.0
2018-Jun-24 20:19N 35°36' E 139°55'0 0.0
2018-Jun-24 19:58N 35°36' E 139°55'0 0.0
2018-Jun-24 19:28N 35°36' E 139°55'0 0.0
2018-Jun-24 18:58N 35°36' E 139°55'0 0.0
2018-Jun-24 18:28N 35°36' E 139°55'0 0.0
2018-Jun-24 17:58N 35°36' E 139°55'0 0.0
2018-Jun-24 17:13N 35°36' E 139°55'0 0.0
2018-Jun-24 16:52N 35°36' E 139°55'0 0.0
2018-Jun-24 16:25N 35°36' E 139°55'0 0.0
2018-Jun-24 15:55N 35°36' E 139°55'0 0.0
2018-Jun-24 15:25N 35°36' E 139°55'0 0.0
2018-Jun-24 14:52N 35°36' E 139°55'0 0.0
2018-Jun-24 14:16N 35°36' E 139°55'0 0.0
2018-Jun-24 13:58N 35°36' E 139°55'0 0.0
2018-Jun-24 13:22N 35°36' E 139°55'0 0.0
2018-Jun-24 10:58N 35°36' E 139°55'0 0.0
2018-Jun-24 10:28N 35°36' E 139°55'0 0.0
2018-Jun-24 09:58N 35°36' E 139°55'0 0.0
2018-Jun-24 09:25N 35°36' E 139°55'0 0.0
2018-Jun-24 08:55N 35°36' E 139°55'1 2.9
2018-Jun-24 08:28N 35°35' E 139°56'510.7
2018-Jun-24 08:00N 35°32' E 140°01'2 2.9
2018-Jun-24 07:20N 35°31' E 140°03'0 0.0
2018-Jun-24 06:56N 35°31' E 140°03'0 0.0
2018-Jun-24 06:26N 35°31' E 140°03'0 0.0
2018-Jun-24 05:56N 35°31' E 140°03'0 0.0
2018-Jun-24 05:20N 35°31' E 140°03'0 0.0
2018-Jun-24 04:56N 35°31' E 140°03'0 0.0
2018-Jun-24 03:44N 35°31' E 140°03'0 0.0
2018-Jun-24 03:20N 35°31' E 140°03'0 0.0
2018-Jun-24 02:56N 35°31' E 140°03'0 0.0
2018-Jun-24 02:26N 35°31' E 140°03'0 0.0
2018-Jun-24 01:56N 35°31' E 140°03'1 1.0
2018-Jun-24 01:26N 35°31' E 140°02'811.6
2018-Jun-24 00:44N 35°38' E 139°58'1 0.4
2018-Jun-23 21:12N 35°37' E 139°58'210.5
2018-Jun-23 21:01N 35°36' E 139°55'0 0.6
2018-Jun-23 20:28N 35°36' E 139°55'0 0.0
2018-Jun-23 19:22N 35°36' E 139°55'0 0.0
2018-Jun-23 18:58N 35°36' E 139°55'0 0.0
2018-Jun-23 18:28N 35°36' E 139°55'0 0.0
2018-Jun-23 17:58N 35°36' E 139°55'0 0.1
2018-Jun-23 17:13N 35°36' E 139°55'0 0.0
2018-Jun-23 16:58N 35°36' E 139°55'0 0.0
2018-Jun-23 16:25N 35°36' E 139°55'0 0.0
2018-Jun-23 15:58N 35°36' E 139°55'0 0.0
2018-Jun-23 15:28N 35°36' E 139°55'0 0.0
2018-Jun-23 12:46N 35°36' E 139°55'0 0.0
2018-Jun-23 12:22N 35°36' E 139°55'0 0.1
2018-Jun-23 11:41N 35°36' E 139°55'1 4.5
2018-Jun-23 11:23N 35°35' E 139°56'510.5
2018-Jun-23 10:57N 35°32' E 140°00'2 3.1
2018-Jun-23 10:13N 35°31' E 140°03'0 0.0
2018-Jun-23 07:55N 35°31' E 140°03'0 0.0
2018-Jun-23 07:19N 35°31' E 140°03'0 0.0
2018-Jun-23 06:49N 35°31' E 140°03'0 0.0
2018-Jun-23 06:13N 35°31' E 140°03'0 0.0
2018-Jun-23 05:58N 35°31' E 140°03'0 0.0
2018-Jun-23 05:28N 35°31' E 140°03'0 0.0
2018-Jun-23 04:55N 35°31' E 140°03'0 0.5
2018-Jun-23 04:30N 35°31' E 140°02'510.2
2018-Jun-23 03:59N 35°35' E 139°60'2 0.2
2018-Jun-22 18:48N 35°37' E 139°59'0 0.0
2018-Jun-22 17:15N 35°37' E 139°59'0 0.0
2018-Jun-22 17:00N 35°37' E 139°59'0 0.0
2018-Jun-22 16:27N 35°37' E 139°59'0 0.0
2018-Jun-22 12:18N 35°37' E 139°59'0 0.0
2018-Jun-22 12:00N 35°37' E 139°59'0 0.0
2018-Jun-22 09:29N 35°37' E 139°59'9 1.4
2018-Jun-22 03:20N 35°29' E 140°01'310.1
2018-Jun-22 03:00N 35°32' E 139°59'610.8
2018-Jun-22 02:28N 35°37' E 139°59'0 0.0
2018-Jun-21 12:44N 35°37' E 139°59'4 7.5
2018-Jun-21 12:14N 35°34' E 139°60'210.4
2018-Jun-21 12:00N 35°32' E 140°01'1 0.2
2018-Jun-21 06:50N 35°31' E 140°02'1 1.8
2018-Jun-21 06:24N 35°31' E 140°02'0 0.4
2018-Jun-21 05:58N 35°31' E 140°01'4 7.4
2018-Jun-21 05:28N 35°34' E 139°58'3 6.7
2018-Jun-21 04:59N 35°36' E 139°55'0 0.0
2018-Jun-21 04:20N 35°36' E 139°55'0 0.0
2018-Jun-21 03:59N 35°36' E 139°55'2 3.9
2018-Jun-21 03:30N 35°37' E 139°57'0 0.0
2018-Jun-20 23:08N 35°37' E 139°57'1 9.5
2018-Jun-20 23:00N 35°36' E 139°56'1 1.0
2018-Jun-20 22:27N 35°36' E 139°55'0 0.0
2018-Jun-20 22:00N 35°36' E 139°55'0 0.0
2018-Jun-20 21:24N 35°36' E 139°55'0 0.0
2018-Jun-20 21:00N 35°36' E 139°55'0 0.0
2018-Jun-20 19:03N 35°36' E 139°55'0 0.0
2018-Jun-20 18:48N 35°36' E 139°55'0 0.0
2018-Jun-20 18:27N 35°36' E 139°55'0 0.0
2018-Jun-20 18:00N 35°36' E 139°55'0 0.0
2018-Jun-20 17:27N 35°36' E 139°55'0 0.0
2018-Jun-20 16:57N 35°36' E 139°55'0 0.0
2018-Jun-20 14:57N 35°36' E 139°55'0 0.0
2018-Jun-20 14:27N 35°36' E 139°55'0 0.0
2018-Jun-20 13:21N 35°36' E 139°55'0 0.1
2018-Jun-20 12:57N 35°36' E 139°55'0 0.0
2018-Jun-20 12:30N 35°36' E 139°55'3 6.7
2018-Jun-20 12:00N 35°34' E 139°58'5 8.2
2018-Jun-20 11:25N 35°31' E 140°03'0 0.0
2018-Jun-20 10:49N 35°31' E 140°03'0 0.0
2018-Jun-20 10:19N 35°31' E 140°03'0 0.0
2018-Jun-20 09:49N 35°31' E 140°03'0 0.0
2018-Jun-20 09:25N 35°31' E 140°03'0 0.0
2018-Jun-20 08:55N 35°31' E 140°03'0 0.0
2018-Jun-20 08:25N 35°31' E 140°03'0 0.0
2018-Jun-20 07:55N 35°31' E 140°03'0 0.0
2018-Jun-20 07:10N 35°31' E 140°03'0 0.0
2018-Jun-20 06:58N 35°31' E 140°03'0 0.0
2018-Jun-20 06:28N 35°31' E 140°03'0 0.0
2018-Jun-20 05:55N 35°31' E 140°03'0 0.0
2018-Jun-20 05:28N 35°31' E 140°03'1 2.7
2018-Jun-20 04:58N 35°32' E 140°01'1 1.3
2018-Jun-20 04:29N 35°32' E 140°01'1 1.1
2018-Jun-20 03:44N 35°33' E 140°01'0 0.5
2018-Jun-20 03:26N 35°33' E 140°01'0 0.7
2018-Jun-20 02:58N 35°33' E 140°01'5 9.0
2018-Jun-20 02:22N 35°38' E 139°58'1 0.4
2018-Jun-19 22:20N 35°37' E 139°58'3 7.6
2018-Jun-19 22:00N 35°36' E 139°55'0 0.0
2018-Jun-19 19:37N 35°36' E 139°55'0 0.0
2018-Jun-19 19:28N 35°36' E 139°55'0 0.0
2018-Jun-19 15:55N 35°36' E 139°55'0 0.0
2018-Jun-19 15:28N 35°36' E 139°55'0 0.0
2018-Jun-19 14:55N 35°36' E 139°55'0 0.0
2018-Jun-19 13:08N 35°36' E 139°55'1 5.6
2018-Jun-19 12:55N 35°35' E 139°56'410.6
2018-Jun-19 12:30N 35°32' E 140°00'2 3.2
2018-Jun-19 11:50N 35°31' E 140°03'0 0.0
2018-Jun-19 11:14N 35°31' E 140°03'0 0.0
2018-Jun-19 10:56N 35°31' E 140°03'0 0.0
2018-Jun-19 10:26N 35°31' E 140°03'0 0.0
2018-Jun-19 09:44N 35°31' E 140°03'0 0.0
2018-Jun-19 09:02N 35°31' E 140°03'0 0.0
2018-Jun-19 08:50N 35°31' E 140°03'0 0.0
2018-Jun-19 08:26N 35°31' E 140°03'0 0.0
2018-Jun-19 07:53N 35°31' E 140°03'0 0.0
2018-Jun-19 07:23N 35°31' E 140°03'0 0.0
2018-Jun-19 06:59N 35°31' E 140°03'0 0.0
2018-Jun-19 06:30N 35°31' E 140°03'1 1.2
2018-Jun-19 05:51N 35°31' E 140°02'1 0.4
2018-Jun-19 04:13N 35°32' E 140°02'2 9.7
2018-Jun-19 03:59N 35°34' E 140°00'611.1
2018-Jun-19 03:29N 35°39' E 139°58'2 0.3
2018-Jun-18 22:10N 35°37' E 139°58'1 0.1
2018-Jun-18 10:39N 35°37' E 139°58'3 7.1
2018-Jun-18 10:14N 35°34' E 139°59'210.6
2018-Jun-18 10:00N 35°32' E 140°01'2 0.3
2018-Jun-18 04:51N 35°31' E 140°02'1 3.2
2018-Jun-18 04:29N 35°32' E 140°01'1 1.5
2018-Jun-18 04:00N 35°32' E 140°01'4 8.9
2018-Jun-18 03:30N 35°35' E 139°57'1 2.8
2018-Jun-18 03:00N 35°36' E 139°55'0 0.9
2018-Jun-18 02:30N 35°36' E 139°56'4 1.1
2018-Jun-17 22:42N 35°40' E 139°57'3 7.8
2018-Jun-17 22:18N 35°38' E 139°59'310.1
2018-Jun-17 21:59N 35°36' E 139°55'0 0.3
2018-Jun-17 21:27N 35°36' E 139°55'0 0.0
2018-Jun-17 20:54N 35°36' E 139°55'0 0.0
2018-Jun-17 20:27N 35°36' E 139°55'0 0.0
2018-Jun-17 19:54N 35°36' E 139°55'0 0.0
2018-Jun-17 19:30N 35°36' E 139°55'0 0.0
2018-Jun-17 19:00N 35°36' E 139°55'0 0.0
2018-Jun-17 18:30N 35°36' E 139°55'0 0.0
2018-Jun-17 18:00N 35°36' E 139°55'0 0.0
2018-Jun-17 17:27N 35°36' E 139°55'0 0.0
2018-Jun-17 17:00N 35°36' E 139°55'0 0.0
2018-Jun-17 16:30N 35°36' E 139°55'0 0.0
2018-Jun-17 16:00N 35°36' E 139°55'0 0.0
2018-Jun-17 15:27N 35°36' E 139°55'0 0.0
2018-Jun-17 15:00N 35°36' E 139°55'0 0.0
2018-Jun-17 14:30N 35°36' E 139°55'0 0.0
2018-Jun-17 14:00N 35°36' E 139°55'0 0.0
2018-Jun-17 13:30N 35°36' E 139°55'0 0.0
2018-Jun-17 13:00N 35°36' E 139°55'0 0.0
2018-Jun-17 12:30N 35°36' E 139°55'0 0.0
2018-Jun-17 11:45N 35°36' E 139°55'0 0.0
2018-Jun-17 11:30N 35°36' E 139°55'0 0.0
2018-Jun-17 10:54N 35°36' E 139°55'0 0.0
2018-Jun-17 10:24N 35°36' E 139°55'2 4.9
2018-Jun-17 10:01N 35°35' E 139°57'510.6
2018-Jun-17 09:30N 35°31' E 140°02'1 0.5
2018-Jun-17 08:04N 35°31' E 140°03'0 0.0
2018-Jun-17 05:52N 35°31' E 140°03'0 0.0
2018-Jun-17 03:58N 35°31' E 140°03'0 0.3
2018-Jun-17 03:14N 35°31' E 140°02'1 0.8
2018-Jun-17 01:45N 35°32' E 140°01'411.4
2018-Jun-17 01:26N 35°35' E 139°60'3 0.1
2018-Jun-16 02:26N 35°38' E 139°59'0 0.0
2018-Jun-15 21:16N 35°38' E 139°59'310.1
2018-Jun-15 21:00N 35°36' E 139°56'  

Dump ship's entire track history